AirNav   TITAN Aviation Fuels
 
 463 users online  

17M Magee Municipal Airport
Magee, Mississippi, USA

GOING TO MAGEE?


FAA INFORMATION EFFECTIVE 16 JUNE 2022

Location

FAA Identifier: 17M
Lat/Long: 31-51-45.9540N 089-48-02.2120W
31-51.765900N 089-48.036867W
31.8627650,-89.8006144
(estimated)
Elevation: 555.8 ft. / 169.4 m (surveyed)
Variation: 01W (2015)
From city: 3 miles W of MAGEE, MS
Time zone: UTC -5 (UTC -6 during Standard Time)
Zip code: 39111

Airport Operations

Airport use: Open to the public
Control tower: no
ARTCC: MEMPHIS CENTER
FSS: GREENWOOD FLIGHT SERVICE STATION
NOTAMs facility: GWO (NOTAM-D service available)
Attendance: CONTINUOUS
Wind indicator: lighted
Segmented circle: yes
Lights: ACTVT MIRL RWY 18/36 - CTAF.
Beacon: white-green (lighted land airport)
Operates sunset to sunrise.

Airport Communications

CTAF/UNICOM: 122.8
  • APCH/DEP SVC PRVDD BY MEMPHIS ARTCC ON FREQS 125.975/307.275 (MERIDIAN RCAG).

Airport Services

Fuel available: 100LL JET-A1
100LL:FUEL AVBL 24 HRS WITH CREDIT CARD.
Parking: tiedowns
Airframe service: NONE
Powerplant service: NONE
Bottled oxygen: NONE
Bulk oxygen: NONE

Runway Information

Runway 18/36

Dimensions: 3103 x 60 ft. / 946 x 18 m
Surface: asphalt, in excellent condition
Weight bearing capacity: 
PCN 15 /F/C/Y/T
Single wheel: 19.0
Runway edge lights: medium intensity
RUNWAY 18  RUNWAY 36
Latitude: 31-52.021797N31-51.510000N
Longitude: 089-48.039975W089-48.033763W
Elevation: 553.2 ft.548.9 ft.
Traffic pattern: leftleft
Runway heading: 180 magnetic, 179 true000 magnetic, 359 true
Markings: nonprecision, in good conditionnonprecision, in good condition
Visual slope indicator: 2-light PAPI on left (3.00 degrees glide path)
Touchdown point: yes, no lightsyes, no lights
Obstructions: 50 ft. trees, 1250 ft. from runway, 250 ft. left of centerline, 21:1 slope to clear80 ft. trees, 2500 ft. from runway, 28:1 slope to clear

Airport Ownership and Management from official FAA records

Ownership: Publicly-owned
Owner: CITY OF MAGEE
123 N. MAIN ST.
MAGEE, MS 39111
Phone 601-849-3344
Manager: ASHLEY STEELE
111 PRINE DR.
MAGEE, MS 39111
Phone 601-382-5752

Airport Operational Statistics

Aircraft based on the field: 11
Single engine airplanes: 10
Multi engine airplanes: 1
    
Aircraft operations: avg 23/day *
59% transient general aviation
37% local general aviation
4% military
* for 12-month period ending 21 April 2021

Additional Remarks

RY 36 4 FT DEEP DITCH 250 FT FROM THR.
FOR CD CTC MEMPHIS ARTCC AT 901-368-8453/8449.

Instrument Procedures

NOTE: All procedures below are presented as PDF files. If you need a reader for these files, you should download the free Adobe Reader.

NOT FOR NAVIGATION. Please procure official charts for flight.
FAA instrument procedures published for use from 16 June 2022 at 0901Z to 14 July 2022 at 0900z.

 
IAPs - Instrument Approach Procedures
RNAV (GPS) RWY 18   download (194KB)
RNAV (GPS) RWY 36   download (192KB)
NOTE: Special Take-Off Minimums/Departure Procedures apply   download

Other nearby airports with instrument procedures:

M43 - Prentiss-Jefferson Davis County Airport (17 nm S)
M11 - Copiah County Airport (29 nm W)
KJAN - Jackson-Medgar Wiley Evers International Airport (30 nm NW)
KPIB - Hattiesburg/Laurel Regional Airport (34 nm SE)
0R0 - Columbia/Marion County Airport (34 nm S)
 
Loc | Ops | Rwys | IFR | FBO | Links
Com | Nav | Svcs | Stats | Notes
Area around 17M (Magee Municipal Airport)
 
Road maps at: MapQuest Bing Google
 
Aerial photo
WARNING: Photo may not be current or correct
Aerial photo of 17M (Magee Municipal Airport)
Photo by Winnfort Myles
Photo taken 17-Oct-2009

Do you have a better or more recent aerial photo of Magee Municipal Airport that you would like to share? If so, please send us your photo.

 
Sectional chart

 
Airport distance calculator
Flying to Magee Municipal Airport? Find the distance to fly.

From to 17M

Sunrise and sunset
Times for 30-Jun-2022
 Local
(UTC-5)
 Zulu
(UTC)
Morning civil twilight05:3010:30
Sunrise05:5810:58
Sunset20:0801:08
Evening civil twilight20:3601:36

Current date and time
Zulu (UTC)  30-Jun-2022 09:40:34
Local (UTC-5)  30-Jun-2022 04:40:34
 
METAR
KJAN 
31nm NW 
300912Z 00000KT 10SM FEW005 BKN013 23/22 A3012 RMK AO2 T02280222 $
KLUL 
34nm SE 
300915Z AUTO 00000KT 10SM SCT003 OVC100 23/23 A3014 RMK A02 T02320230
K0R0 
34nm S 
300915Z AUTO 13005G11KT 1 1/4SM -RA BR BKN002 BKN016 OVC024 23/23 A3015 RMK AO2 LTG DSNT E-S
KPIB 
34nm SE 
300856Z AUTO 00000KT 10SM FEW038 SCT050 23/23 A3014 RMK AO2 LTG DSNT S SLP204 T02330233 55004
K1R7 
35nm SW 
300915Z AUTO 00000KT 1/4SM FG OVC002 22/22 A3014 RMK AO2 PWINO
KHKS 
35nm NW 
300904Z AUTO 11003KT 8SM OVC004 24/22 A3012 RMK AO2 T02390222
KMBO 
38nm NW 
300915Z AUTO 00000KT 10SM BKN008 BKN015 23/23 A3012 RMK AO2 LTG DSNT S
KJVW 
41nm NW 
300915Z AUTO 11003KT 10SM OVC004 24/24 A3011 RMK AO2 LTG DSNT SE
KHBG 
46nm SE 
300914Z AUTO 22003KT 10SM VCTS SCT008 BKN015 OVC100 24/23 A3014 RMK AO2 LTG DSNT S T02390228
TAF
KJAN 
31nm NW 
300745Z 3008/0106 16003KT P6SM BKN004 FM301500 15006KT P6SM OVC015 FM301700 15008KT P6SM VCSH BKN040 FM302000 15008KT P6SM TSRA BKN035CB FM010000 14007KT P6SM -RA OVC120 FM010300 14006KT P6SM OVC250
KPIB 
34nm SE 
300530Z 3006/0106 16003KT P6SM FEW015 SCT060 FM301000 00000KT 6SM BR BKN009 OVC060 FM301600 11004KT P6SM VCSH SCT035 BKN050 FM301900 15008KT P6SM TSRA BKN035CB FM010000 14007KT P6SM -RA OVC120 FM010300 14006KT P6SM OVC250
KHKS 
35nm NW 
300728Z 3007/0106 14008KT P6SM BKN006 FM301500 14008KT P6SM BKN035 FM301800 15008KT P6SM VCSH BKN040 FM302000 15008KT P6SM TSRA BKN035CB FM010000 14007KT P6SM -RA OVC120 FM010300 14006KT P6SM OVC250
NOTAMs
Click for the latest NOTAMs
NOTAMs are issued by the DoD/FAA and will open in a separate window not controlled by AirNav.

 

 
 

FBO, Fuel Providers, and Aircraft Ground Support

  
 Business Name 
 
 Contact 
 
 Services / Description 
 
Fuel Prices
 
Comments
  
Magee Municipal Airport 601-849-3571
no information available

If you are affiliated with Magee Municipal Airport and would like to show here your services, contact info, web link, logo, and more, click here
100LL Jet A
SS $4.10 $6.00 
 Updated 21-Dec-2021
 
   1 read write
SS=Self service
Update Fuel Prices
 

Would you like to see your business listed on this page?

 If your business provides an interesting product or service to pilots, flight crews, aircraft, or users of the Magee Municipal Airport, you should consider listing it here.  To start the listing process, click on the button below
 
Add a business
 

Other Pages about Magee Municipal Airport

Update a link
 
Copyright © AirNav, LLC. All rights reserved. Privacy Policy  Contact